TVS4002 DNAA-LKPR
Flight info
| Callsign | TVS4002 |
|---|---|
| Flight time | N/A |
| Altitude | 39000 |
| Route | ABC UV456 KUA UR778 KAN UA604 AS UR978 BOD UG362 EBA UP161 TUC UM725 SUSIP DCT PININ DCT MALUG DCT BUDEX DCT APRAQ |
| Aircraft | B38M/M-SDE1FGHILORVWXY/HB1 |
Departure
| Time | 2026-04-21 11:17 |
|---|---|
| Airport | Nnamdi Azikiwe International Airport (DNAA) |
Arrival
| Time | N/A |
|---|---|
| Airport | Václav Havel Airport Prague (LKPR) |
| Time | Latitude | Longitude | Altitude | Speed | Heading |
|---|---|---|---|---|---|
| 2026-04-21 10:43 | 9.00495 | 7.26899 | 1082 ft | 0 kts | 73° |
| 2026-04-21 11:11 | 9.00496 | 7.26900 | 1128 ft | 1 kts | 55° |
| 2026-04-21 11:11 | 9.00499 | 7.26900 | 1118 ft | 1 kts | 13° |
| 2026-04-21 11:11 | 9.00501 | 7.26899 | 1118 ft | 0 kts | 343° |
| 2026-04-21 11:12 | 9.00505 | 7.26895 | 1120 ft | 3 kts | 316° |
| 2026-04-21 11:12 | 9.00500 | 7.26836 | 1126 ft | 14 kts | 252° |
| 2026-04-21 11:12 | 9.00460 | 7.26727 | 1125 ft | 18 kts | 245° |
| 2026-04-21 11:13 | 9.00500 | 7.26615 | 1113 ft | 19 kts | 330° |
| 2026-04-21 11:13 | 9.00597 | 7.26513 | 1113 ft | 21 kts | 292° |
| 2026-04-21 11:13 | 9.00530 | 7.26416 | 1114 ft | 19 kts | 214° |
| 2026-04-21 11:13 | 9.00411 | 7.26333 | 1107 ft | 22 kts | 215° |
| 2026-04-21 11:14 | 9.00275 | 7.26236 | 1112 ft | 26 kts | 214° |
| 2026-04-21 11:14 | 9.00120 | 7.26127 | 1105 ft | 29 kts | 215° |
| 2026-04-21 11:14 | 8.99949 | 7.26006 | 1102 ft | 32 kts | 215° |
| 2026-04-21 11:14 | 8.99762 | 7.25874 | 1102 ft | 34 kts | 214° |
| 2026-04-21 11:15 | 8.99559 | 7.25731 | 1099 ft | 37 kts | 215° |
| 2026-04-21 11:15 | 8.99363 | 7.25592 | 1100 ft | 24 kts | 215° |
| 2026-04-21 11:15 | 8.99296 | 7.25475 | 1097 ft | 19 kts | 304° |
| 2026-04-21 11:15 | 8.99308 | 7.25454 | 1099 ft | 0 kts | 299° |
| 2026-04-21 11:16 | 8.99323 | 7.25429 | 1099 ft | 9 kts | 303° |
| 2026-04-21 11:16 | 8.99384 | 7.25400 | 1099 ft | 9 kts | 31° |
| 2026-04-21 11:16 | 8.99466 | 7.25457 | 1099 ft | 31 kts | 36° |
| 2026-04-21 11:16 | 8.99857 | 7.25734 | 1103 ft | 105 kts | 35° |
| 2026-04-21 11:17 | 9.00640 | 7.26287 | 1117 ft | 163 kts | 34° |
| 2026-04-21 11:17 | 9.01594 | 7.26963 | 1708 ft | 173 kts | 34° |
| 2026-04-21 11:17 | 9.02565 | 7.27652 | 2455 ft | 173 kts | 34° |
| 2026-04-21 11:17 | 9.03609 | 7.28313 | 3069 ft | 186 kts | 19° |
| 2026-04-21 11:18 | 9.04968 | 7.28566 | 3531 ft | 211 kts | 7° |
| 2026-04-21 11:18 | 9.06505 | 7.28750 | 4070 ft | 233 kts | 7° |
| 2026-04-21 11:18 | 9.08180 | 7.28941 | 4689 ft | 252 kts | 7° |
| 2026-04-21 11:18 | 9.09989 | 7.29141 | 5306 ft | 269 kts | 7° |
| 2026-04-21 11:19 | 9.11889 | 7.29344 | 6132 ft | 276 kts | 8° |
| 2026-04-21 11:19 | 9.13805 | 7.29545 | 7032 ft | 279 kts | 9° |
| 2026-04-21 11:19 | 9.15753 | 7.29747 | 7886 ft | 282 kts | 9° |
| 2026-04-21 11:19 | 9.17714 | 7.29949 | 8787 ft | 285 kts | 9° |
| 2026-04-21 11:20 | 9.19706 | 7.30155 | 9641 ft | 290 kts | 9° |
| 2026-04-21 11:20 | 9.21740 | 7.30366 | 10360 ft | 300 kts | 9° |
| 2026-04-21 11:20 | 9.23887 | 7.30589 | 10788 ft | 320 kts | 9° |
| 2026-04-21 11:20 | 9.26164 | 7.30823 | 11248 ft | 336 kts | 9° |
| 2026-04-21 11:21 | 9.28527 | 7.31067 | 11898 ft | 344 kts | 9° |
| 2026-04-21 11:21 | 9.30921 | 7.31315 | 12746 ft | 348 kts | 9° |
| 2026-04-21 11:21 | 9.32535 | 7.31481 | 13287 ft | 352 kts | 9° |
| 2026-04-21 11:21 | 9.34985 | 7.31734 | 14092 ft | 357 kts | 9° |
| 2026-04-21 11:22 | 9.37472 | 7.31991 | 14844 ft | 362 kts | 8° |
| 2026-04-21 11:22 | 9.39987 | 7.32252 | 15620 ft | 366 kts | 8° |
| 2026-04-21 11:22 | 9.42539 | 7.32516 | 16378 ft | 370 kts | 8° |
| 2026-04-21 11:22 | 9.45121 | 7.32784 | 17092 ft | 375 kts | 7° |
| 2026-04-21 11:23 | 9.47733 | 7.33055 | 17821 ft | 380 kts | 7° |
| 2026-04-21 11:23 | 9.50381 | 7.33330 | 18475 ft | 384 kts | 7° |
| 2026-04-21 11:23 | 9.53056 | 7.33607 | 19069 ft | 388 kts | 7° |
| 2026-04-21 11:23 | 9.55757 | 7.33888 | 19652 ft | 392 kts | 7° |
| 2026-04-21 11:24 | 9.58487 | 7.34171 | 20217 ft | 397 kts | 7° |
| 2026-04-21 11:24 | 9.61250 | 7.34458 | 20784 ft | 401 kts | 7° |
| 2026-04-21 11:24 | 9.64012 | 7.34744 | 21345 ft | 405 kts | 7° |
| 2026-04-21 11:24 | 9.66827 | 7.35036 | 21890 ft | 409 kts | 7° |
| 2026-04-21 11:25 | 9.69676 | 7.35332 | 22426 ft | 414 kts | 7° |
| 2026-04-21 11:25 | 9.72549 | 7.35631 | 22949 ft | 418 kts | 6° |
| 2026-04-21 11:25 | 9.75459 | 7.35933 | 23449 ft | 422 kts | 6° |
| 2026-04-21 11:25 | 9.78394 | 7.36237 | 23883 ft | 425 kts | 6° |
| 2026-04-21 11:26 | 9.81340 | 7.36542 | 24397 ft | 426 kts | 6° |
| 2026-04-21 11:26 | 9.84294 | 7.36849 | 24888 ft | 427 kts | 5° |
| 2026-04-21 11:26 | 9.87254 | 7.37159 | 25376 ft | 428 kts | 5° |
| 2026-04-21 11:26 | 9.90223 | 7.37469 | 25860 ft | 429 kts | 4° |
| 2026-04-21 11:27 | 9.93196 | 7.37781 | 26340 ft | 430 kts | 4° |
| 2026-04-21 11:27 | 9.96182 | 7.38093 | 26813 ft | 432 kts | 4° |
| 2026-04-21 11:27 | 9.99173 | 7.38406 | 27285 ft | 433 kts | 3° |
| 2026-04-21 11:27 | 10.02174 | 7.38721 | 27755 ft | 434 kts | 3° |
| 2026-04-21 11:28 | 10.05179 | 7.39035 | 28223 ft | 436 kts | 2° |
| 2026-04-21 11:28 | 10.08206 | 7.39352 | 28677 ft | 437 kts | 2° |
| 2026-04-21 11:28 | 10.11236 | 7.39670 | 29119 ft | 439 kts | 2° |
| 2026-04-21 11:28 | 10.14276 | 7.39989 | 29560 ft | 440 kts | 1° |
| 2026-04-21 11:29 | 10.17330 | 7.40309 | 29973 ft | 442 kts | 1° |
| 2026-04-21 11:29 | 10.20401 | 7.40631 | 30308 ft | 444 kts | 1° |
| 2026-04-21 11:29 | 10.23445 | 7.40951 | 30614 ft | 447 kts | 1° |
| 2026-04-21 11:29 | 10.26544 | 7.41276 | 30934 ft | 449 kts | 1° |
| 2026-04-21 11:30 | 10.29669 | 7.41603 | 31235 ft | 452 kts | 1° |
| 2026-04-21 11:30 | 10.32803 | 7.41932 | 31538 ft | 454 kts | 1° |
| 2026-04-21 11:30 | 10.35962 | 7.42264 | 31845 ft | 456 kts | 1° |
| 2026-04-21 11:30 | 10.39124 | 7.42595 | 32158 ft | 459 kts | 1° |
| 2026-04-21 11:31 | 10.42310 | 7.42930 | 32444 ft | 461 kts | 1° |
| 2026-04-21 11:31 | 10.45504 | 7.43265 | 32791 ft | 462 kts | 1° |
| 2026-04-21 11:31 | 10.48705 | 7.43601 | 33174 ft | 462 kts | 1° |
| 2026-04-21 11:31 | 10.51906 | 7.43938 | 33582 ft | 461 kts | 1° |
| 2026-04-21 11:32 | 10.55094 | 7.44273 | 33966 ft | 461 kts | 1° |
| 2026-04-21 11:32 | 10.58265 | 7.44806 | 34297 ft | 467 kts | 12° |
| 2026-04-21 11:32 | 10.61268 | 7.46140 | 34673 ft | 477 kts | 26° |
| 2026-04-21 11:32 | 10.64021 | 7.48061 | 34974 ft | 481 kts | 30° |
| 2026-04-21 11:33 | 10.66729 | 7.49993 | 35260 ft | 482 kts | 30° |
| 2026-04-21 11:33 | 10.69462 | 7.51971 | 35580 ft | 483 kts | 31° |
| 2026-04-21 11:33 | 10.72192 | 7.53963 | 35893 ft | 483 kts | 31° |
| 2026-04-21 11:33 | 10.74917 | 7.55958 | 36223 ft | 483 kts | 31° |
| 2026-04-21 11:34 | 10.77654 | 7.57963 | 36555 ft | 484 kts | 31° |
| 2026-04-21 11:34 | 10.80383 | 7.59962 | 36872 ft | 484 kts | 31° |
| 2026-04-21 11:34 | 10.83112 | 7.61963 | 37203 ft | 484 kts | 31° |
| 2026-04-21 11:34 | 10.85840 | 7.63963 | 37524 ft | 484 kts | 31° |
| 2026-04-21 11:35 | 10.88576 | 7.65969 | 37829 ft | 484 kts | 31° |
| 2026-04-21 11:35 | 10.91310 | 7.67975 | 38139 ft | 484 kts | 31° |
| 2026-04-21 11:35 | 10.94039 | 7.69976 | 38435 ft | 484 kts | 31° |
| 2026-04-21 11:35 | 10.96774 | 7.71984 | 38687 ft | 484 kts | 31° |
| 2026-04-21 11:36 | 10.99506 | 7.73989 | 38876 ft | 485 kts | 31° |
| 2026-04-21 11:36 | 11.02240 | 7.75996 | 38891 ft | 483 kts | 31° |
| 2026-04-21 11:36 | 11.07673 | 7.79986 | 38888 ft | 481 kts | 31° |
| 2026-04-21 11:37 | 11.13099 | 7.83973 | 38893 ft | 480 kts | 31° |
| 2026-04-21 11:37 | 11.18515 | 7.87955 | 38890 ft | 480 kts | 31° |
| 2026-04-21 11:38 | 11.23928 | 7.91936 | 38891 ft | 480 kts | 31° |
| 2026-04-21 11:38 | 11.29364 | 7.95871 | 38902 ft | 479 kts | 30° |
| 2026-04-21 11:39 | 11.34779 | 7.99777 | 38905 ft | 479 kts | 30° |
| 2026-04-21 11:39 | 11.40225 | 8.03710 | 38906 ft | 479 kts | 30° |
| 2026-04-21 11:40 | 11.45670 | 8.07644 | 38891 ft | 479 kts | 30° |
| 2026-04-21 11:40 | 11.51117 | 8.11580 | 38898 ft | 479 kts | 30° |
| 2026-04-21 11:41 | 11.56560 | 8.15517 | 38908 ft | 479 kts | 30° |
| 2026-04-21 11:41 | 11.61967 | 8.19429 | 38898 ft | 479 kts | 30° |
| 2026-04-21 11:42 | 11.67404 | 8.23366 | 38905 ft | 479 kts | 30° |
| 2026-04-21 11:42 | 11.72845 | 8.27306 | 38898 ft | 479 kts | 30° |
| 2026-04-21 11:43 | 11.78283 | 8.31246 | 38900 ft | 479 kts | 30° |
| 2026-04-21 11:43 | 11.83725 | 8.35191 | 38900 ft | 479 kts | 30° |
| 2026-04-21 11:44 | 11.89161 | 8.39135 | 38901 ft | 479 kts | 30° |
| 2026-04-21 11:44 | 11.94596 | 8.43078 | 38900 ft | 479 kts | 30° |
| 2026-04-21 11:45 | 12.00052 | 8.46981 | 38897 ft | 476 kts | 24° |
| 2026-04-21 11:45 | 12.03025 | 8.48334 | 38906 ft | 463 kts | 11° |
| 2026-04-21 11:45 | 12.06147 | 8.48895 | 38897 ft | 451 kts | 355° |
| 2026-04-21 11:46 | 12.12340 | 8.48635 | 38900 ft | 448 kts | 350° |
| 2026-04-21 11:46 | 12.18550 | 8.48114 | 38905 ft | 447 kts | 349° |
| 2026-04-21 11:47 | 12.24742 | 8.47520 | 38905 ft | 447 kts | 348° |
| 2026-04-21 11:47 | 12.30932 | 8.46911 | 38903 ft | 447 kts | 348° |
| 2026-04-21 11:48 | 12.37122 | 8.46301 | 38906 ft | 447 kts | 348° |
| 2026-04-21 11:48 | 12.43279 | 8.45693 | 38903 ft | 447 kts | 348° |
| 2026-04-21 11:49 | 12.49473 | 8.45081 | 38900 ft | 447 kts | 348° |
| 2026-04-21 11:49 | 12.55659 | 8.44471 | 38905 ft | 447 kts | 348° |
| 2026-04-21 11:50 | 12.61853 | 8.43858 | 38900 ft | 447 kts | 348° |
| 2026-04-21 11:50 | 12.68041 | 8.43246 | 38896 ft | 447 kts | 348° |
| 2026-04-21 11:51 | 12.74229 | 8.42634 | 38896 ft | 446 kts | 348° |
| 2026-04-21 11:51 | 12.80407 | 8.42022 | 38892 ft | 446 kts | 348° |
| 2026-04-21 11:52 | 12.86594 | 8.41408 | 38894 ft | 447 kts | 348° |
| 2026-04-21 11:52 | 12.92787 | 8.40794 | 38889 ft | 447 kts | 348° |
| 2026-04-21 11:53 | 12.98946 | 8.40182 | 38889 ft | 448 kts | 348° |
| 2026-04-21 11:53 | 13.05162 | 8.39564 | 38887 ft | 449 kts | 348° |
| 2026-04-21 11:54 | 13.11388 | 8.38973 | 38884 ft | 449 kts | 348° |
| 2026-04-21 11:54 | 13.17619 | 8.38392 | 38886 ft | 450 kts | 348° |
| 2026-04-21 11:55 | 13.23855 | 8.37808 | 38883 ft | 450 kts | 348° |
| 2026-04-21 11:55 | 13.30103 | 8.37224 | 38885 ft | 450 kts | 348° |
| 2026-04-21 11:56 | 13.36343 | 8.36640 | 38883 ft | 450 kts | 348° |
| 2026-04-21 11:56 | 13.42580 | 8.36056 | 38882 ft | 450 kts | 348° |
| 2026-04-21 11:57 | 13.48771 | 8.35476 | 38875 ft | 449 kts | 348° |
| 2026-04-21 11:57 | 13.55001 | 8.34892 | 38878 ft | 449 kts | 348° |
| 2026-04-21 11:58 | 13.61224 | 8.34308 | 38871 ft | 449 kts | 348° |
| 2026-04-21 11:58 | 13.67454 | 8.33724 | 38885 ft | 450 kts | 348° |
| 2026-04-21 11:59 | 13.70570 | 8.33431 | 39093 ft | 450 kts | 348° |
| 2026-04-21 11:59 | 13.73689 | 8.33138 | 39315 ft | 450 kts | 348° |
| 2026-04-21 11:59 | 13.76818 | 8.32844 | 39530 ft | 450 kts | 347° |
| 2026-04-21 11:59 | 13.79937 | 8.32551 | 39741 ft | 450 kts | 347° |
| 2026-04-21 12:00 | 13.83057 | 8.32257 | 39873 ft | 451 kts | 347° |
| 2026-04-21 12:00 | 13.86188 | 8.31963 | 39873 ft | 450 kts | 347° |
| 2026-04-21 12:00 | 13.92408 | 8.31378 | 39869 ft | 449 kts | 347° |
| 2026-04-21 12:01 | 13.98629 | 8.30792 | 39866 ft | 449 kts | 347° |
| 2026-04-21 12:01 | 14.04848 | 8.30206 | 39862 ft | 449 kts | 347° |
| 2026-04-21 12:02 | 14.14167 | 8.29327 | 39864 ft | 448 kts | 347° |
| 2026-04-21 12:03 | 14.20385 | 8.28741 | 39861 ft | 448 kts | 347° |
| 2026-04-21 12:03 | 14.26563 | 8.28157 | 39863 ft | 448 kts | 347° |
| 2026-04-21 12:04 | 14.32767 | 8.27572 | 39860 ft | 448 kts | 347° |
| 2026-04-21 12:04 | 14.38976 | 8.26985 | 39859 ft | 448 kts | 347° |
| 2026-04-21 12:05 | 14.45185 | 8.26398 | 39857 ft | 448 kts | 347° |
| 2026-04-21 12:05 | 14.51386 | 8.25811 | 39859 ft | 447 kts | 347° |
| 2026-04-21 12:06 | 14.57588 | 8.25224 | 39856 ft | 447 kts | 347° |
| 2026-04-21 12:06 | 14.63782 | 8.24637 | 39850 ft | 447 kts | 347° |
| 2026-04-21 12:07 | 14.69981 | 8.24050 | 39849 ft | 447 kts | 347° |
| 2026-04-21 12:07 | 14.76168 | 8.23463 | 39851 ft | 446 kts | 347° |
| 2026-04-21 12:08 | 14.81308 | 8.22976 | 39846 ft | 446 kts | 347° |
| 2026-04-21 12:08 | 14.88498 | 8.22293 | 39848 ft | 446 kts | 346° |
| 2026-04-21 12:09 | 14.93680 | 8.21801 | 39846 ft | 446 kts | 346° |
| 2026-04-21 12:09 | 14.99859 | 8.21214 | 39844 ft | 446 kts | 346° |
| 2026-04-21 12:10 | 15.06007 | 8.20630 | 39845 ft | 446 kts | 346° |
| 2026-04-21 12:10 | 15.12191 | 8.20044 | 39849 ft | 446 kts | 346° |
| 2026-04-21 12:11 | 15.18368 | 8.19458 | 39848 ft | 445 kts | 346° |
| 2026-04-21 12:11 | 15.24537 | 8.18873 | 39850 ft | 445 kts | 346° |
| 2026-04-21 12:12 | 15.30711 | 8.18287 | 39851 ft | 445 kts | 346° |
| 2026-04-21 12:12 | 15.36880 | 8.17702 | 39852 ft | 445 kts | 346° |
| 2026-04-21 12:13 | 15.43047 | 8.17116 | 39853 ft | 445 kts | 346° |
| 2026-04-21 12:13 | 15.49217 | 8.16529 | 39855 ft | 445 kts | 346° |
| 2026-04-21 12:14 | 15.55388 | 8.15942 | 39855 ft | 445 kts | 346° |
| 2026-04-21 12:14 | 15.61547 | 8.15356 | 39853 ft | 445 kts | 346° |
| 2026-04-21 12:15 | 15.67668 | 8.14773 | 39861 ft | 445 kts | 346° |
| 2026-04-21 12:15 | 15.73871 | 8.14182 | 39860 ft | 444 kts | 345° |
| 2026-04-21 12:16 | 15.79991 | 8.13598 | 39867 ft | 445 kts | 345° |
| 2026-04-21 12:16 | 15.86158 | 8.13010 | 39858 ft | 444 kts | 345° |
| 2026-04-21 12:17 | 15.92322 | 8.12421 | 39864 ft | 445 kts | 345° |
| 2026-04-21 12:17 | 15.98476 | 8.11834 | 39864 ft | 444 kts | 345° |
| 2026-04-21 12:18 | 16.04644 | 8.11244 | 39866 ft | 444 kts | 345° |
| 2026-04-21 12:18 | 16.10803 | 8.10655 | 39863 ft | 444 kts | 345° |
| 2026-04-21 12:19 | 16.16949 | 8.10066 | 39867 ft | 443 kts | 345° |
| 2026-04-21 12:19 | 16.23096 | 8.09478 | 39864 ft | 443 kts | 345° |
| 2026-04-21 12:20 | 16.29233 | 8.08890 | 39866 ft | 442 kts | 345° |
| 2026-04-21 12:20 | 16.35362 | 8.08302 | 39863 ft | 442 kts | 345° |
| 2026-04-21 12:21 | 16.41451 | 8.07718 | 39861 ft | 442 kts | 345° |
| 2026-04-21 12:21 | 16.47573 | 8.07130 | 39865 ft | 442 kts | 345° |
| 2026-04-21 12:22 | 16.53704 | 8.06541 | 39861 ft | 442 kts | 345° |
| 2026-04-21 12:22 | 16.59830 | 8.05952 | 39858 ft | 442 kts | 345° |
| 2026-04-21 12:23 | 16.65953 | 8.05363 | 39869 ft | 442 kts | 345° |
| 2026-04-21 12:23 | 16.72077 | 8.04774 | 39873 ft | 441 kts | 344° |
| 2026-04-21 12:24 | 16.78192 | 8.04185 | 39895 ft | 441 kts | 344° |
| 2026-04-21 12:24 | 16.84313 | 8.03595 | 39903 ft | 442 kts | 344° |
| 2026-04-21 12:25 | 16.90447 | 8.03004 | 39916 ft | 442 kts | 344° |
| 2026-04-21 12:25 | 16.96570 | 8.02418 | 39913 ft | 442 kts | 345° |
| 2026-04-21 12:26 | 17.02684 | 8.01933 | 39914 ft | 443 kts | 345° |
| 2026-04-21 12:26 | 17.08833 | 8.01439 | 39905 ft | 443 kts | 345° |
| 2026-04-21 12:27 | 17.14985 | 8.00944 | 39895 ft | 443 kts | 345° |
| 2026-04-21 12:27 | 17.21138 | 8.00447 | 39874 ft | 443 kts | 345° |
| 2026-04-21 12:28 | 17.27291 | 7.99951 | 39867 ft | 443 kts | 345° |
| 2026-04-21 12:28 | 17.33442 | 7.99455 | 39851 ft | 443 kts | 345° |
| 2026-04-21 12:29 | 17.39594 | 7.98958 | 39852 ft | 443 kts | 345° |
| 2026-04-21 12:29 | 17.45751 | 7.98460 | 39851 ft | 444 kts | 345° |
| 2026-04-21 12:30 | 17.51871 | 7.97965 | 39844 ft | 444 kts | 345° |
| 2026-04-21 12:30 | 17.58034 | 7.97466 | 39839 ft | 444 kts | 345° |
| 2026-04-21 12:31 | 17.64195 | 7.96967 | 39843 ft | 444 kts | 345° |
| 2026-04-21 12:31 | 17.70360 | 7.96467 | 39837 ft | 444 kts | 345° |
| 2026-04-21 12:32 | 17.76529 | 7.95967 | 39833 ft | 444 kts | 345° |
| 2026-04-21 12:32 | 17.82699 | 7.95466 | 39834 ft | 444 kts | 345° |
| 2026-04-21 12:33 | 17.88877 | 7.94964 | 39842 ft | 445 kts | 345° |
| 2026-04-21 12:33 | 17.95049 | 7.94463 | 39835 ft | 445 kts | 345° |
| 2026-04-21 12:34 | 18.01186 | 7.93964 | 39837 ft | 445 kts | 345° |
| 2026-04-21 12:34 | 18.07361 | 7.93461 | 39834 ft | 445 kts | 345° |
| 2026-04-21 12:35 | 18.13541 | 7.92957 | 39834 ft | 445 kts | 345° |
| 2026-04-21 12:35 | 18.19725 | 7.92454 | 39840 ft | 446 kts | 345° |
| 2026-04-21 12:36 | 18.25912 | 7.91949 | 39831 ft | 445 kts | 345° |
| 2026-04-21 12:36 | 18.32088 | 7.91445 | 39840 ft | 445 kts | 345° |
| 2026-04-21 12:37 | 18.38267 | 7.90940 | 39840 ft | 445 kts | 345° |
| 2026-04-21 12:37 | 18.44445 | 7.90435 | 39832 ft | 446 kts | 345° |
| 2026-04-21 12:38 | 18.50640 | 7.89929 | 39839 ft | 446 kts | 345° |
| 2026-04-21 12:38 | 18.56833 | 7.89422 | 39835 ft | 447 kts | 345° |
| 2026-04-21 12:39 | 18.63002 | 7.88916 | 39839 ft | 447 kts | 345° |
| 2026-04-21 12:39 | 18.69197 | 7.88408 | 39848 ft | 447 kts | 345° |
| 2026-04-21 12:40 | 18.75398 | 7.87900 | 39846 ft | 446 kts | 345° |
| 2026-04-21 12:40 | 18.81589 | 7.87391 | 39850 ft | 445 kts | 345° |
| 2026-04-21 12:41 | 18.87766 | 7.86884 | 39853 ft | 445 kts | 345° |
| 2026-04-21 12:41 | 18.93948 | 7.86376 | 39853 ft | 444 kts | 344° |
| 2026-04-21 12:42 | 19.00070 | 7.85872 | 39853 ft | 444 kts | 344° |
| 2026-04-21 12:42 | 19.06222 | 7.85365 | 39852 ft | 443 kts | 344° |
| 2026-04-21 12:43 | 19.12381 | 7.84858 | 39859 ft | 444 kts | 344° |
| 2026-04-21 12:43 | 19.18541 | 7.84350 | 39861 ft | 444 kts | 344° |
| 2026-04-21 12:44 | 19.24718 | 7.83840 | 39859 ft | 444 kts | 344° |
| 2026-04-21 12:44 | 19.30883 | 7.83331 | 39866 ft | 444 kts | 345° |
| 2026-04-21 12:45 | 19.37007 | 7.82825 | 39870 ft | 444 kts | 344° |
| 2026-04-21 12:45 | 19.43173 | 7.82315 | 39873 ft | 444 kts | 344° |
| 2026-04-21 12:46 | 19.49341 | 7.81807 | 39871 ft | 445 kts | 345° |
| 2026-04-21 12:46 | 19.55532 | 7.81316 | 39877 ft | 446 kts | 345° |
| 2026-04-21 12:47 | 19.61723 | 7.80824 | 39868 ft | 446 kts | 345° |
| 2026-04-21 12:47 | 19.67928 | 7.80331 | 39877 ft | 447 kts | 345° |
| 2026-04-21 12:48 | 19.74137 | 7.79836 | 39882 ft | 448 kts | 345° |
| 2026-04-21 12:48 | 19.80359 | 7.79341 | 39877 ft | 448 kts | 345° |
| 2026-04-21 12:49 | 19.86537 | 7.78848 | 39884 ft | 448 kts | 345° |
| 2026-04-21 12:49 | 19.92770 | 7.78351 | 39881 ft | 449 kts | 345° |
| 2026-04-21 12:50 | 19.99005 | 7.77852 | 39881 ft | 450 kts | 345° |
| 2026-04-21 12:50 | 20.05253 | 7.77353 | 39880 ft | 450 kts | 345° |
| 2026-04-21 12:51 | 20.11504 | 7.76853 | 39877 ft | 451 kts | 345° |
| 2026-04-21 12:51 | 20.17721 | 7.76355 | 39882 ft | 451 kts | 345° |
| 2026-04-21 12:52 | 20.23981 | 7.75854 | 39873 ft | 451 kts | 345° |
| 2026-04-21 12:52 | 20.30266 | 7.75350 | 40170 ft | 453 kts | 345° |
| 2026-04-21 12:52 | 20.33408 | 7.75098 | 40377 ft | 453 kts | 345° |
| 2026-04-21 12:53 | 20.36554 | 7.74845 | 40567 ft | 453 kts | 345° |
| 2026-04-21 12:53 | 20.39702 | 7.74592 | 40760 ft | 453 kts | 345° |
| 2026-04-21 12:53 | 20.42849 | 7.74339 | 40879 ft | 454 kts | 345° |
| 2026-04-21 12:54 | 20.49149 | 7.73833 | 40863 ft | 452 kts | 345° |
| 2026-04-21 12:54 | 20.55424 | 7.73328 | 40878 ft | 453 kts | 345° |
| 2026-04-21 12:55 | 20.60647 | 7.72908 | 40873 ft | 453 kts | 345° |
| 2026-04-21 12:55 | 20.66944 | 7.72400 | 40871 ft | 453 kts | 345° |
| 2026-04-21 12:56 | 20.73237 | 7.71893 | 40880 ft | 454 kts | 345° |
| 2026-04-21 12:56 | 20.79547 | 7.71384 | 40877 ft | 454 kts | 345° |
| 2026-04-21 12:57 | 20.85850 | 7.70875 | 40881 ft | 454 kts | 345° |
| 2026-04-21 12:57 | 20.92160 | 7.70365 | 40884 ft | 455 kts | 345° |
| 2026-04-21 12:58 | 20.98419 | 7.69681 | 40891 ft | 449 kts | 341° |
| 2026-04-21 12:58 | 21.04625 | 7.68787 | 40890 ft | 450 kts | 341° |
| 2026-04-21 12:59 | 21.10845 | 7.67917 | 40892 ft | 451 kts | 341° |
| 2026-04-21 12:59 | 21.17032 | 7.67055 | 40889 ft | 451 kts | 341° |
| 2026-04-21 13:00 | 21.23270 | 7.66184 | 40890 ft | 452 kts | 341° |
| 2026-04-21 13:00 | 21.29507 | 7.65313 | 40888 ft | 452 kts | 341° |
| 2026-04-21 13:01 | 21.35744 | 7.64441 | 40895 ft | 452 kts | 341° |
| 2026-04-21 13:01 | 21.41980 | 7.63569 | 40895 ft | 452 kts | 341° |
| 2026-04-21 13:02 | 21.48228 | 7.62694 | 40893 ft | 452 kts | 341° |
| 2026-04-21 13:02 | 21.57598 | 7.61381 | 40895 ft | 453 kts | 341° |
| 2026-04-21 13:03 | 21.63798 | 7.60511 | 40890 ft | 453 kts | 341° |
| 2026-04-21 13:03 | 21.70065 | 7.59631 | 40896 ft | 453 kts | 341° |
| 2026-04-21 13:04 | 21.76318 | 7.58752 | 40894 ft | 453 kts | 341° |
| 2026-04-21 13:04 | 21.82562 | 7.57874 | 40899 ft | 453 kts | 341° |
| 2026-04-21 13:05 | 21.88818 | 7.56993 | 40895 ft | 453 kts | 341° |
| 2026-04-21 13:05 | 21.95066 | 7.56112 | 40901 ft | 453 kts | 341° |
| 2026-04-21 13:06 | 22.01287 | 7.55235 | 40895 ft | 453 kts | 341° |
| 2026-04-21 13:06 | 22.07533 | 7.54352 | 40910 ft | 453 kts | 341° |
| 2026-04-21 13:07 | 22.13795 | 7.53468 | 40896 ft | 453 kts | 341° |
| 2026-04-21 13:07 | 22.20049 | 7.52583 | 40901 ft | 454 kts | 341° |
| 2026-04-21 13:08 | 22.26308 | 7.51697 | 40903 ft | 454 kts | 342° |
| 2026-04-21 13:08 | 22.32579 | 7.50808 | 40905 ft | 454 kts | 342° |
| 2026-04-21 13:09 | 22.38808 | 7.49925 | 40916 ft | 455 kts | 342° |
| 2026-04-21 13:09 | 22.45079 | 7.49035 | 40913 ft | 455 kts | 342° |
| 2026-04-21 13:10 | 22.51356 | 7.48143 | 40911 ft | 455 kts | 342° |
| 2026-04-21 13:10 | 22.57638 | 7.47250 | 40916 ft | 455 kts | 342° |
| 2026-04-21 13:11 | 22.63920 | 7.46356 | 40911 ft | 455 kts | 342° |
| 2026-04-21 13:11 | 22.70205 | 7.45460 | 40911 ft | 455 kts | 342° |
| 2026-04-21 13:12 | 22.76490 | 7.44564 | 40919 ft | 456 kts | 342° |
| 2026-04-21 13:12 | 22.82784 | 7.43666 | 40919 ft | 456 kts | 342° |
| 2026-04-21 13:13 | 22.89077 | 7.42767 | 40919 ft | 456 kts | 342° |
| 2026-04-21 13:13 | 22.95339 | 7.41871 | 40917 ft | 456 kts | 342° |
| 2026-04-21 13:14 | 23.01647 | 7.40968 | 40923 ft | 456 kts | 342° |
| 2026-04-21 13:14 | 23.07946 | 7.40065 | 40919 ft | 457 kts | 342° |
| 2026-04-21 13:15 | 23.14247 | 7.39162 | 40922 ft | 457 kts | 342° |
| 2026-04-21 13:15 | 23.20553 | 7.38257 | 40922 ft | 457 kts | 342° |
| 2026-04-21 13:16 | 23.26860 | 7.37351 | 40923 ft | 457 kts | 342° |
| 2026-04-21 13:16 | 23.33169 | 7.36443 | 40919 ft | 457 kts | 342° |
| 2026-04-21 13:17 | 23.39478 | 7.35535 | 40927 ft | 457 kts | 342° |
| 2026-04-21 13:17 | 23.45748 | 7.34631 | 40923 ft | 457 kts | 342° |
| 2026-04-21 13:18 | 23.52079 | 7.33814 | 40938 ft | 460 kts | 345° |
| 2026-04-21 13:18 | 23.58447 | 7.33160 | 40934 ft | 459 kts | 345° |
| 2026-04-21 13:19 | 23.64809 | 7.32487 | 40935 ft | 459 kts | 345° |
| 2026-04-21 13:19 | 23.71162 | 7.31813 | 40929 ft | 458 kts | 345° |
| 2026-04-21 13:20 | 23.77506 | 7.31138 | 40935 ft | 458 kts | 345° |
| 2026-04-21 13:20 | 23.83846 | 7.30465 | 40918 ft | 458 kts | 345° |
| 2026-04-21 13:21 | 23.90193 | 7.29789 | 40935 ft | 458 kts | 345° |
| 2026-04-21 13:21 | 23.96538 | 7.29113 | 40924 ft | 457 kts | 345° |
| 2026-04-21 13:22 | 24.02838 | 7.28442 | 40920 ft | 458 kts | 345° |
| 2026-04-21 13:22 | 24.09182 | 7.27764 | 40915 ft | 458 kts | 345° |
| 2026-04-21 13:23 | 24.15525 | 7.27087 | 40912 ft | 458 kts | 345° |
| 2026-04-21 13:23 | 24.21872 | 7.26408 | 40903 ft | 458 kts | 345° |
| 2026-04-21 13:24 | 24.28227 | 7.25727 | 40900 ft | 458 kts | 345° |
| 2026-04-21 13:24 | 24.34560 | 7.25049 | 40890 ft | 457 kts | 345° |
| 2026-04-21 13:25 | 24.40898 | 7.24369 | 40890 ft | 458 kts | 345° |
| 2026-04-21 13:25 | 24.47248 | 7.23687 | 40884 ft | 458 kts | 345° |
| 2026-04-21 13:26 | 24.53552 | 7.23010 | 40882 ft | 458 kts | 345° |
| 2026-04-21 13:26 | 24.59896 | 7.22327 | 40874 ft | 458 kts | 345° |
| 2026-04-21 13:27 | 24.66233 | 7.21645 | 40877 ft | 457 kts | 345° |
| 2026-04-21 13:27 | 24.72564 | 7.20962 | 40881 ft | 457 kts | 345° |
| 2026-04-21 13:28 | 24.78900 | 7.20278 | 40873 ft | 456 kts | 345° |
| 2026-04-21 13:28 | 24.85230 | 7.19594 | 40878 ft | 456 kts | 345° |
| 2026-04-21 13:29 | 24.91515 | 7.18915 | 40876 ft | 456 kts | 345° |
| 2026-04-21 13:29 | 24.97837 | 7.18234 | 40878 ft | 456 kts | 345° |
| 2026-04-21 13:30 | 25.04148 | 7.17556 | 40871 ft | 456 kts | 345° |
| 2026-04-21 13:30 | 25.10470 | 7.16876 | 40867 ft | 456 kts | 345° |
| 2026-04-21 13:31 | 25.16783 | 7.16196 | 40876 ft | 456 kts | 345° |
| 2026-04-21 13:31 | 25.23092 | 7.15516 | 40878 ft | 456 kts | 345° |
| 2026-04-21 13:32 | 25.29400 | 7.14835 | 40869 ft | 455 kts | 345° |
| 2026-04-21 13:32 | 25.35706 | 7.14154 | 40866 ft | 455 kts | 345° |
| 2026-04-21 13:33 | 25.42002 | 7.13473 | 40878 ft | 455 kts | 345° |
| 2026-04-21 13:33 | 25.48258 | 7.12796 | 40863 ft | 454 kts | 345° |
| 2026-04-21 13:34 | 25.54541 | 7.12114 | 40873 ft | 454 kts | 345° |
| 2026-04-21 13:34 | 25.60836 | 7.11432 | 40862 ft | 454 kts | 345° |
| 2026-04-21 13:35 | 25.67125 | 7.10749 | 40854 ft | 454 kts | 345° |
| 2026-04-21 13:35 | 25.73418 | 7.10064 | 40854 ft | 454 kts | 345° |
| 2026-04-21 13:36 | 25.79713 | 7.09379 | 40843 ft | 454 kts | 345° |
| 2026-04-21 13:36 | 25.85997 | 7.08695 | 40833 ft | 453 kts | 345° |
| 2026-04-21 13:37 | 25.92259 | 7.08013 | 40830 ft | 451 kts | 346° |
| 2026-04-21 13:37 | 25.98518 | 7.07329 | 40823 ft | 452 kts | 346° |
| 2026-04-21 13:38 | 26.04794 | 7.06657 | 40818 ft | 454 kts | 346° |
| 2026-04-21 13:38 | 26.11075 | 7.05985 | 40803 ft | 453 kts | 346° |
| 2026-04-21 13:39 | 26.17319 | 7.05316 | 40814 ft | 454 kts | 346° |
| 2026-04-21 13:39 | 26.23594 | 7.04642 | 40792 ft | 452 kts | 346° |
| 2026-04-21 13:40 | 26.29864 | 7.03968 | 40779 ft | 452 kts | 346° |
| 2026-04-21 13:40 | 26.36130 | 7.03294 | 40789 ft | 453 kts | 346° |
| 2026-04-21 13:41 | 26.42407 | 7.02618 | 40773 ft | 453 kts | 346° |
| 2026-04-21 13:41 | 26.48683 | 7.01942 | 40775 ft | 453 kts | 346° |
| 2026-04-21 13:42 | 26.53895 | 7.01379 | 40763 ft | 453 kts | 346° |
| 2026-04-21 13:42 | 26.60179 | 7.00700 | 40770 ft | 454 kts | 346° |
| 2026-04-21 13:43 | 26.66488 | 7.00018 | 40760 ft | 456 kts | 346° |
| 2026-04-21 13:43 | 26.72776 | 6.99336 | 40787 ft | 454 kts | 346° |
| 2026-04-21 13:44 | 26.79062 | 6.98655 | 40758 ft | 453 kts | 346° |
| 2026-04-21 13:44 | 26.85343 | 6.97974 | 40758 ft | 454 kts | 346° |
| 2026-04-21 13:45 | 26.91605 | 6.97294 | 40761 ft | 456 kts | 346° |
| 2026-04-21 13:45 | 26.97908 | 6.96608 | 40770 ft | 455 kts | 346° |
| 2026-04-21 13:46 | 27.04220 | 6.95921 | 40745 ft | 454 kts | 346° |
| 2026-04-21 13:46 | 27.10514 | 6.95234 | 40748 ft | 454 kts | 346° |
| 2026-04-21 13:47 | 27.16801 | 6.94548 | 40744 ft | 454 kts | 347° |
| 2026-04-21 13:47 | 27.23052 | 6.93865 | 40745 ft | 454 kts | 347° |
| 2026-04-21 13:48 | 27.29347 | 6.93177 | 40744 ft | 454 kts | 347° |
| 2026-04-21 13:48 | 27.35635 | 6.92488 | 40746 ft | 454 kts | 347° |
| 2026-04-21 13:49 | 27.41926 | 6.91799 | 40744 ft | 454 kts | 347° |
| 2026-04-21 13:49 | 27.48176 | 6.91113 | 40744 ft | 454 kts | 347° |
| 2026-04-21 13:50 | 27.54511 | 6.90416 | 40743 ft | 454 kts | 347° |
| 2026-04-21 13:50 | 27.60761 | 6.89730 | 40736 ft | 455 kts | 347° |
| 2026-04-21 13:51 | 27.67061 | 6.89035 | 40743 ft | 454 kts | 347° |
| 2026-04-21 13:51 | 27.73354 | 6.88341 | 40747 ft | 454 kts | 347° |
| 2026-04-21 13:52 | 27.79653 | 6.87646 | 40747 ft | 455 kts | 347° |
| 2026-04-21 13:52 | 27.85952 | 6.86950 | 40746 ft | 454 kts | 347° |
| 2026-04-21 13:53 | 27.92243 | 6.86254 | 40751 ft | 455 kts | 347° |
| 2026-04-21 13:53 | 27.98515 | 6.85560 | 40754 ft | 455 kts | 348° |
| 2026-04-21 13:54 | 28.04810 | 6.84861 | 40756 ft | 454 kts | 348° |
| 2026-04-21 13:54 | 28.11131 | 6.84382 | 40743 ft | 462 kts | 358° |
| 2026-04-21 13:55 | 28.14312 | 6.85112 | 40750 ft | 473 kts | 14° |
| 2026-04-21 13:55 | 28.17319 | 6.86727 | 40768 ft | 482 kts | 25° |
| 2026-04-21 13:55 | 28.23186 | 6.90464 | 40761 ft | 484 kts | 25° |
| 2026-04-21 13:56 | 28.29018 | 6.94283 | 40769 ft | 484 kts | 25° |
| 2026-04-21 13:56 | 28.34832 | 6.98124 | 40768 ft | 483 kts | 25° |
| 2026-04-21 13:57 | 28.40602 | 7.01943 | 40767 ft | 483 kts | 25° |
| 2026-04-21 13:57 | 28.46404 | 7.05788 | 40774 ft | 482 kts | 25° |
| 2026-04-21 13:58 | 28.52203 | 7.09636 | 40767 ft | 482 kts | 25° |
| 2026-04-21 13:58 | 28.57996 | 7.13485 | 40769 ft | 482 kts | 25° |
| 2026-04-21 13:59 | 28.63785 | 7.17336 | 40771 ft | 482 kts | 25° |
| 2026-04-21 13:59 | 28.69542 | 7.21171 | 40773 ft | 481 kts | 25° |
| 2026-04-21 14:00 | 28.75320 | 7.25025 | 40775 ft | 481 kts | 25° |
| 2026-04-21 14:00 | 28.81087 | 7.28877 | 40778 ft | 480 kts | 25° |
| 2026-04-21 14:01 | 28.86855 | 7.32734 | 40773 ft | 480 kts | 25° |
| 2026-04-21 14:01 | 28.92611 | 7.36589 | 40773 ft | 480 kts | 25° |
| 2026-04-21 14:02 | 28.98369 | 7.40450 | 40776 ft | 479 kts | 25° |
| 2026-04-21 14:03 | 29.06998 | 7.46245 | 40777 ft | 479 kts | 25° |
| 2026-04-21 14:03 | 29.12745 | 7.50111 | 40782 ft | 479 kts | 25° |
| 2026-04-21 14:04 | 29.18488 | 7.53979 | 40771 ft | 479 kts | 25° |
| 2026-04-21 14:04 | 29.24229 | 7.57851 | 40788 ft | 479 kts | 25° |
| 2026-04-21 14:05 | 29.29962 | 7.61723 | 40781 ft | 479 kts | 25° |
| 2026-04-21 14:05 | 29.35662 | 7.65577 | 40795 ft | 479 kts | 25° |
| 2026-04-21 14:06 | 29.41397 | 7.69460 | 40800 ft | 478 kts | 25° |
| 2026-04-21 14:06 | 29.47121 | 7.73339 | 40803 ft | 478 kts | 25° |
| 2026-04-21 14:07 | 29.52863 | 7.77205 | 40798 ft | 477 kts | 25° |
| 2026-04-21 14:07 | 29.58594 | 7.81061 | 40804 ft | 477 kts | 25° |
| 2026-04-21 14:08 | 29.64318 | 7.84918 | 40812 ft | 477 kts | 25° |
| 2026-04-21 14:08 | 29.70005 | 7.88755 | 40806 ft | 476 kts | 25° |
| 2026-04-21 14:09 | 29.75758 | 7.92641 | 40806 ft | 476 kts | 25° |
| 2026-04-21 14:09 | 29.81435 | 7.96480 | 40808 ft | 476 kts | 24° |
| 2026-04-21 14:10 | 29.87155 | 8.00340 | 40818 ft | 476 kts | 24° |
| 2026-04-21 14:10 | 29.92869 | 8.04200 | 40820 ft | 475 kts | 24° |
| 2026-04-21 14:11 | 29.98583 | 8.08066 | 40813 ft | 476 kts | 24° |
| 2026-04-21 14:11 | 30.04296 | 8.11935 | 40822 ft | 475 kts | 24° |
| 2026-04-21 14:12 | 30.09998 | 8.15787 | 40827 ft | 475 kts | 24° |
| 2026-04-21 14:12 | 30.15703 | 8.19645 | 40819 ft | 474 kts | 24° |
| 2026-04-21 14:13 | 30.21403 | 8.23504 | 40818 ft | 474 kts | 24° |
| 2026-04-21 14:13 | 30.27099 | 8.27367 | 40834 ft | 474 kts | 24° |
| 2026-04-21 14:14 | 30.32744 | 8.31199 | 40855 ft | 474 kts | 24° |
| 2026-04-21 14:14 | 30.38437 | 8.35070 | 40840 ft | 474 kts | 24° |
| 2026-04-21 14:15 | 30.44114 | 8.38935 | 40840 ft | 474 kts | 24° |
| 2026-04-21 14:15 | 30.49803 | 8.42783 | 40842 ft | 473 kts | 24° |
| 2026-04-21 14:16 | 30.55501 | 8.46627 | 40848 ft | 473 kts | 24° |
| 2026-04-21 14:16 | 30.61187 | 8.50471 | 40841 ft | 473 kts | 24° |
| 2026-04-21 14:17 | 30.66867 | 8.54315 | 40852 ft | 473 kts | 24° |
| 2026-04-21 14:17 | 30.72552 | 8.58167 | 40850 ft | 472 kts | 24° |
| 2026-04-21 14:18 | 30.78231 | 8.62023 | 40853 ft | 472 kts | 24° |
| 2026-04-21 14:18 | 30.83899 | 8.65875 | 40852 ft | 472 kts | 24° |
| 2026-04-21 14:19 | 30.89576 | 8.69738 | 40858 ft | 472 kts | 24° |
| 2026-04-21 14:19 | 30.95239 | 8.73598 | 40863 ft | 472 kts | 24° |
| 2026-04-21 14:20 | 31.00902 | 8.77463 | 40858 ft | 471 kts | 24° |
| 2026-04-21 14:20 | 31.06522 | 8.81303 | 40861 ft | 471 kts | 24° |
| 2026-04-21 14:21 | 31.12175 | 8.85172 | 40864 ft | 471 kts | 24° |
| 2026-04-21 14:21 | 31.17836 | 8.89051 | 40869 ft | 471 kts | 24° |
| 2026-04-21 14:22 | 31.23486 | 8.92929 | 40871 ft | 471 kts | 24° |
| 2026-04-21 14:22 | 31.29138 | 8.96814 | 40872 ft | 471 kts | 24° |
| 2026-04-21 14:23 | 31.34787 | 9.00701 | 40878 ft | 470 kts | 24° |
| 2026-04-21 14:23 | 31.40427 | 9.04588 | 40879 ft | 470 kts | 24° |
| 2026-04-21 14:24 | 31.46023 | 9.08450 | 40883 ft | 470 kts | 24° |
| 2026-04-21 14:24 | 31.51661 | 9.12347 | 40886 ft | 470 kts | 24° |
| 2026-04-21 14:25 | 31.57292 | 9.16244 | 40886 ft | 470 kts | 24° |
| 2026-04-21 14:25 | 31.62916 | 9.20141 | 40884 ft | 470 kts | 24° |
| 2026-04-21 14:26 | 31.68540 | 9.24042 | 40891 ft | 469 kts | 24° |
| 2026-04-21 14:26 | 31.71455 | 9.25619 | 40876 ft | 455 kts | 9° |
| 2026-04-21 14:26 | 31.74498 | 9.26624 | 40890 ft | 455 kts | 9° |
| 2026-04-21 14:27 | 31.80583 | 9.28664 | 40897 ft | 455 kts | 8° |
| 2026-04-21 14:27 | 31.86683 | 9.30640 | 40903 ft | 454 kts | 8° |
| 2026-04-21 14:28 | 31.92775 | 9.32604 | 40895 ft | 454 kts | 8° |
| 2026-04-21 14:28 | 31.98863 | 9.34569 | 40903 ft | 454 kts | 8° |
| 2026-04-21 14:29 | 32.04954 | 9.36536 | 40906 ft | 454 kts | 8° |
| 2026-04-21 14:29 | 32.11011 | 9.38496 | 40905 ft | 453 kts | 8° |
| 2026-04-21 14:30 | 32.17096 | 9.40468 | 40899 ft | 453 kts | 8° |
| 2026-04-21 14:30 | 32.23183 | 9.42443 | 40907 ft | 453 kts | 8° |
| 2026-04-21 14:31 | 32.28236 | 9.44084 | 40906 ft | 453 kts | 8° |
| 2026-04-21 14:31 | 32.34316 | 9.46062 | 40909 ft | 453 kts | 9° |
| 2026-04-21 14:32 | 32.40396 | 9.48043 | 40914 ft | 453 kts | 9° |
| 2026-04-21 14:32 | 32.46469 | 9.50024 | 40913 ft | 452 kts | 9° |
| 2026-04-21 14:33 | 32.52542 | 9.52008 | 40898 ft | 453 kts | 9° |
| 2026-04-21 14:33 | 32.58623 | 9.53997 | 40911 ft | 453 kts | 9° |
| 2026-04-21 14:34 | 32.64692 | 9.55985 | 40919 ft | 452 kts | 9° |
| 2026-04-21 14:34 | 32.70762 | 9.57976 | 40913 ft | 452 kts | 9° |
| 2026-04-21 14:35 | 32.76831 | 9.59969 | 40916 ft | 452 kts | 9° |
| 2026-04-21 14:35 | 32.82907 | 9.61968 | 40912 ft | 453 kts | 9° |
| 2026-04-21 14:36 | 32.88941 | 9.63956 | 40918 ft | 452 kts | 9° |
| 2026-04-21 14:36 | 32.95012 | 9.65959 | 40916 ft | 453 kts | 9° |
| 2026-04-21 14:37 | 33.01087 | 9.67966 | 40920 ft | 452 kts | 9° |
| 2026-04-21 14:37 | 33.07160 | 9.69975 | 40917 ft | 453 kts | 9° |
| 2026-04-21 14:38 | 33.13230 | 9.71987 | 40920 ft | 453 kts | 9° |
| 2026-04-21 14:38 | 33.19301 | 9.74001 | 40914 ft | 452 kts | 9° |
| 2026-04-21 14:39 | 33.25373 | 9.76018 | 40921 ft | 453 kts | 9° |
| 2026-04-21 14:39 | 33.31442 | 9.78038 | 40923 ft | 453 kts | 9° |
| 2026-04-21 14:40 | 33.37508 | 9.80059 | 40920 ft | 453 kts | 9° |
| 2026-04-21 14:40 | 33.43576 | 9.82084 | 40919 ft | 453 kts | 9° |
| 2026-04-21 14:41 | 33.49610 | 9.84101 | 40916 ft | 453 kts | 10° |
| 2026-04-21 14:41 | 33.55680 | 9.86132 | 40912 ft | 453 kts | 10° |
| 2026-04-21 14:42 | 33.61755 | 9.88168 | 40916 ft | 452 kts | 10° |
| 2026-04-21 14:42 | 33.67825 | 9.90205 | 40914 ft | 453 kts | 10° |
| 2026-04-21 14:43 | 33.73929 | 9.91890 | 40896 ft | 441 kts | 356° |
| 2026-04-21 14:43 | 33.80060 | 9.91969 | 40912 ft | 442 kts | 355° |
| 2026-04-21 14:44 | 33.86214 | 9.92009 | 40908 ft | 441 kts | 355° |
| 2026-04-21 14:44 | 33.92314 | 9.92019 | 40914 ft | 441 kts | 354° |
| 2026-04-21 14:45 | 33.98463 | 9.92022 | 40905 ft | 441 kts | 354° |
| 2026-04-21 14:45 | 34.04612 | 9.92023 | 40909 ft | 442 kts | 354° |
| 2026-04-21 14:46 | 34.10752 | 9.92024 | 40901 ft | 442 kts | 354° |
| 2026-04-21 14:46 | 34.16900 | 9.92025 | 40906 ft | 442 kts | 355° |
| 2026-04-21 14:47 | 34.23051 | 9.92025 | 40898 ft | 442 kts | 354° |
| 2026-04-21 14:47 | 34.29204 | 9.92026 | 40902 ft | 442 kts | 355° |
| 2026-04-21 14:48 | 34.35321 | 9.92027 | 40900 ft | 442 kts | 355° |
| 2026-04-21 14:48 | 34.41519 | 9.92180 | 40897 ft | 446 kts | 0° |
| 2026-04-21 14:49 | 34.47662 | 9.92902 | 40898 ft | 447 kts | 0° |
| 2026-04-21 14:49 | 34.53845 | 9.93660 | 40895 ft | 447 kts | 0° |
| 2026-04-21 14:50 | 34.59026 | 9.94300 | 40891 ft | 447 kts | 0° |
| 2026-04-21 14:50 | 34.66217 | 9.95190 | 40888 ft | 447 kts | 0° |
| 2026-04-21 14:51 | 34.72402 | 9.95957 | 40889 ft | 447 kts | 0° |
| 2026-04-21 14:51 | 34.78594 | 9.96726 | 40885 ft | 447 kts | 0° |
| 2026-04-21 14:52 | 34.84787 | 9.97496 | 40886 ft | 447 kts | 0° |
| 2026-04-21 14:52 | 34.90977 | 9.98268 | 40882 ft | 447 kts | 1° |
| 2026-04-21 14:53 | 34.97176 | 9.99041 | 40882 ft | 447 kts | 0° |
| 2026-04-21 14:53 | 35.03365 | 9.99814 | 40881 ft | 447 kts | 1° |
| 2026-04-21 14:54 | 35.09567 | 10.00590 | 40877 ft | 448 kts | 1° |
| 2026-04-21 14:54 | 35.15723 | 10.01360 | 40874 ft | 448 kts | 1° |
| 2026-04-21 14:55 | 35.21963 | 10.02137 | 40869 ft | 448 kts | 1° |
| 2026-04-21 14:55 | 35.28118 | 10.02906 | 40866 ft | 448 kts | 1° |
| 2026-04-21 14:56 | 35.34319 | 10.03682 | 40867 ft | 448 kts | 1° |
| 2026-04-21 14:56 | 35.40526 | 10.04463 | 40868 ft | 448 kts | 1° |
| 2026-04-21 14:57 | 35.46730 | 10.05245 | 40865 ft | 448 kts | 1° |
| 2026-04-21 14:57 | 35.52936 | 10.06028 | 40863 ft | 448 kts | 1° |
| 2026-04-21 14:58 | 35.59142 | 10.06813 | 40865 ft | 448 kts | 1° |
| 2026-04-21 14:58 | 35.65348 | 10.07599 | 40872 ft | 448 kts | 1° |
| 2026-04-21 14:59 | 35.71556 | 10.08389 | 40875 ft | 448 kts | 1° |
| 2026-04-21 14:59 | 35.77764 | 10.09181 | 40881 ft | 448 kts | 1° |
| 2026-04-21 15:00 | 35.83976 | 10.09974 | 40881 ft | 448 kts | 1° |
| 2026-04-21 15:00 | 35.90143 | 10.10759 | 40886 ft | 448 kts | 1° |
| 2026-04-21 15:01 | 35.96352 | 10.11551 | 40885 ft | 448 kts | 1° |
| 2026-04-21 15:01 | 36.02557 | 10.12343 | 40890 ft | 448 kts | 1° |
| 2026-04-21 15:02 | 36.08776 | 10.13139 | 40893 ft | 448 kts | 1° |
| 2026-04-21 15:02 | 36.14981 | 10.13936 | 40893 ft | 448 kts | 1° |
| 2026-04-21 15:03 | 36.21191 | 10.14742 | 40898 ft | 449 kts | 1° |
| 2026-04-21 15:03 | 36.27405 | 10.15549 | 40902 ft | 449 kts | 1° |
| 2026-04-21 15:04 | 36.33612 | 10.16356 | 40900 ft | 449 kts | 1° |
| 2026-04-21 15:04 | 36.39827 | 10.17166 | 40899 ft | 449 kts | 1° |
| 2026-04-21 15:05 | 36.45989 | 10.17971 | 40900 ft | 449 kts | 1° |
| 2026-04-21 15:05 | 36.55310 | 10.19190 | 40907 ft | 448 kts | 1° |
| 2026-04-21 15:06 | 36.61513 | 10.20003 | 40910 ft | 448 kts | 1° |
| 2026-04-21 15:06 | 36.67720 | 10.20817 | 40905 ft | 448 kts | 1° |
| 2026-04-21 15:07 | 36.73918 | 10.21633 | 40916 ft | 448 kts | 1° |
| 2026-04-21 15:07 | 36.80114 | 10.22448 | 40913 ft | 448 kts | 1° |
| 2026-04-21 15:08 | 36.83201 | 10.23090 | 40904 ft | 454 kts | 12° |
| 2026-04-21 15:08 | 36.86112 | 10.24686 | 40912 ft | 463 kts | 28° |
| 2026-04-21 15:08 | 36.91242 | 10.29683 | 40905 ft | 470 kts | 35° |
| 2026-04-21 15:09 | 36.96269 | 10.34921 | 40914 ft | 471 kts | 36° |
| 2026-04-21 15:09 | 37.01269 | 10.40224 | 40920 ft | 471 kts | 36° |
| 2026-04-21 15:10 | 37.06225 | 10.45500 | 40922 ft | 471 kts | 36° |
| 2026-04-21 15:10 | 37.11223 | 10.50832 | 40926 ft | 471 kts | 36° |
| 2026-04-21 15:11 | 37.16207 | 10.56158 | 40929 ft | 471 kts | 36° |
| 2026-04-21 15:11 | 37.21204 | 10.61507 | 40929 ft | 471 kts | 36° |
| 2026-04-21 15:12 | 37.26188 | 10.66851 | 40931 ft | 471 kts | 36° |
| 2026-04-21 15:12 | 37.31167 | 10.72202 | 40928 ft | 471 kts | 36° |
| 2026-04-21 15:13 | 37.36111 | 10.77522 | 40932 ft | 471 kts | 36° |
| 2026-04-21 15:13 | 37.41091 | 10.82890 | 40936 ft | 470 kts | 36° |
| 2026-04-21 15:14 | 37.46056 | 10.88256 | 40933 ft | 470 kts | 36° |
| 2026-04-21 15:14 | 37.51016 | 10.93625 | 40932 ft | 470 kts | 36° |
| 2026-04-21 15:15 | 37.55977 | 10.99006 | 40935 ft | 470 kts | 36° |
| 2026-04-21 15:15 | 37.60103 | 11.03487 | 40937 ft | 470 kts | 36° |
| 2026-04-21 15:16 | 37.65869 | 11.09762 | 40936 ft | 470 kts | 36° |
| 2026-04-21 15:16 | 37.70013 | 11.14281 | 40936 ft | 470 kts | 36° |
| 2026-04-21 15:17 | 37.74935 | 11.19658 | 40939 ft | 470 kts | 36° |
| 2026-04-21 15:17 | 37.79870 | 11.25058 | 40939 ft | 470 kts | 37° |
| 2026-04-21 15:18 | 37.84813 | 11.30477 | 40940 ft | 469 kts | 36° |
| 2026-04-21 15:18 | 37.89748 | 11.35881 | 40935 ft | 468 kts | 34° |
| 2026-04-21 15:19 | 37.92444 | 11.38106 | 40938 ft | 458 kts | 19° |
| 2026-04-21 15:19 | 37.95430 | 11.39323 | 40941 ft | 447 kts | 5° |
| 2026-04-21 15:19 | 38.01587 | 11.40373 | 40928 ft | 446 kts | 1° |
| 2026-04-21 15:20 | 38.07761 | 11.41201 | 40938 ft | 446 kts | 1° |
| 2026-04-21 15:20 | 38.13938 | 11.41957 | 40937 ft | 445 kts | 0° |
| 2026-04-21 15:21 | 38.20105 | 11.42700 | 40938 ft | 445 kts | 0° |
| 2026-04-21 15:21 | 38.26251 | 11.43441 | 40938 ft | 445 kts | 0° |
| 2026-04-21 15:22 | 38.32421 | 11.44186 | 40940 ft | 445 kts | 0° |
| 2026-04-21 15:22 | 38.38597 | 11.44934 | 40939 ft | 445 kts | 0° |
| 2026-04-21 15:23 | 38.44763 | 11.45681 | 40937 ft | 445 kts | 0° |
| 2026-04-21 15:23 | 38.50937 | 11.46430 | 40940 ft | 445 kts | 0° |
| 2026-04-21 15:24 | 38.57112 | 11.47181 | 40939 ft | 445 kts | 0° |
| 2026-04-21 15:24 | 38.63267 | 11.47931 | 40940 ft | 445 kts | 0° |
| 2026-04-21 15:25 | 38.69398 | 11.48679 | 40938 ft | 444 kts | 0° |
| 2026-04-21 15:25 | 38.75550 | 11.49431 | 40938 ft | 444 kts | 0° |
| 2026-04-21 15:26 | 38.81705 | 11.50184 | 40939 ft | 444 kts | 0° |
| 2026-04-21 15:26 | 38.87855 | 11.50939 | 40937 ft | 444 kts | 0° |
| 2026-04-21 15:27 | 38.93999 | 11.51693 | 40936 ft | 443 kts | 0° |
| 2026-04-21 15:27 | 39.00144 | 11.52450 | 40935 ft | 443 kts | 0° |
| 2026-04-21 15:28 | 39.06290 | 11.53207 | 40939 ft | 443 kts | 0° |
| 2026-04-21 15:28 | 39.12382 | 11.53960 | 40940 ft | 443 kts | 0° |
| 2026-04-21 15:29 | 39.18524 | 11.54720 | 40939 ft | 443 kts | 0° |
| 2026-04-21 15:29 | 39.24653 | 11.55479 | 40939 ft | 442 kts | 0° |
| 2026-04-21 15:30 | 39.30778 | 11.56240 | 40937 ft | 442 kts | 0° |
| 2026-04-21 15:30 | 39.36905 | 11.57002 | 40939 ft | 442 kts | 0° |
| 2026-04-21 15:31 | 39.43028 | 11.57765 | 40936 ft | 442 kts | 0° |
| 2026-04-21 15:31 | 39.49151 | 11.58529 | 40936 ft | 442 kts | 0° |
| 2026-04-21 15:32 | 39.55269 | 11.59294 | 40935 ft | 442 kts | 0° |
| 2026-04-21 15:32 | 39.61392 | 11.60061 | 40934 ft | 441 kts | 0° |
| 2026-04-21 15:33 | 39.67508 | 11.60828 | 40935 ft | 441 kts | 0° |
| 2026-04-21 15:33 | 39.73589 | 11.61593 | 40935 ft | 441 kts | 0° |
| 2026-04-21 15:34 | 39.79707 | 11.62363 | 40935 ft | 441 kts | 0° |
| 2026-04-21 15:34 | 39.85816 | 11.63134 | 40933 ft | 441 kts | 0° |
| 2026-04-21 15:35 | 39.91931 | 11.63907 | 40936 ft | 441 kts | 0° |
| 2026-04-21 15:35 | 39.98037 | 11.64680 | 40928 ft | 441 kts | 0° |
| 2026-04-21 15:36 | 40.04145 | 11.65454 | 40931 ft | 441 kts | 0° |
| 2026-04-21 15:36 | 40.10249 | 11.66230 | 40938 ft | 440 kts | 0° |
| 2026-04-21 15:37 | 40.16352 | 11.67007 | 40928 ft | 440 kts | 0° |
| 2026-04-21 15:37 | 40.22448 | 11.67784 | 40930 ft | 440 kts | 0° |
| 2026-04-21 15:38 | 40.28557 | 11.68565 | 40934 ft | 440 kts | 0° |
| 2026-04-21 15:38 | 40.34618 | 11.69340 | 40934 ft | 440 kts | 0° |
| 2026-04-21 15:39 | 40.40715 | 11.70122 | 40934 ft | 440 kts | 0° |
| 2026-04-21 15:39 | 40.46819 | 11.70906 | 40931 ft | 440 kts | 0° |
| 2026-04-21 15:40 | 40.52920 | 11.71691 | 40935 ft | 440 kts | 360° |
| 2026-04-21 15:40 | 40.59012 | 11.72477 | 40933 ft | 440 kts | 360° |
| 2026-04-21 15:41 | 40.65097 | 11.73263 | 40931 ft | 440 kts | 360° |
| 2026-04-21 15:41 | 40.71187 | 11.74051 | 40932 ft | 439 kts | 0° |
| 2026-04-21 15:42 | 40.77277 | 11.74840 | 40935 ft | 439 kts | 360° |
| 2026-04-21 15:42 | 40.83362 | 11.75630 | 40937 ft | 439 kts | 360° |
| 2026-04-21 15:43 | 40.89437 | 11.76421 | 40934 ft | 439 kts | 360° |
| 2026-04-21 15:43 | 40.95478 | 11.77208 | 40930 ft | 439 kts | 360° |
| 2026-04-21 15:44 | 41.01559 | 11.78002 | 40927 ft | 439 kts | 360° |
| 2026-04-21 15:44 | 41.07644 | 11.78798 | 40927 ft | 439 kts | 360° |
| 2026-04-21 15:45 | 41.13726 | 11.79595 | 40924 ft | 439 kts | 360° |
| 2026-04-21 15:45 | 41.19792 | 11.80392 | 40921 ft | 438 kts | 360° |
| 2026-04-21 15:46 | 41.25740 | 11.81174 | 40922 ft | 438 kts | 360° |
| 2026-04-21 15:46 | 41.31808 | 11.81974 | 40931 ft | 438 kts | 360° |
| 2026-04-21 15:47 | 41.37885 | 11.82777 | 40917 ft | 438 kts | 360° |
| 2026-04-21 15:47 | 41.43954 | 11.83580 | 40921 ft | 438 kts | 360° |
| 2026-04-21 15:48 | 41.50012 | 11.84383 | 40920 ft | 438 kts | 360° |
| 2026-04-21 15:48 | 41.56075 | 11.85188 | 40918 ft | 438 kts | 360° |
| 2026-04-21 15:49 | 41.62140 | 11.85995 | 40915 ft | 438 kts | 360° |
| 2026-04-21 15:49 | 41.68206 | 11.86803 | 40911 ft | 438 kts | 360° |
| 2026-04-21 15:50 | 41.74264 | 11.87612 | 40913 ft | 438 kts | 360° |
| 2026-04-21 15:50 | 41.80332 | 11.88424 | 40961 ft | 438 kts | 360° |
| 2026-04-21 15:51 | 41.86408 | 11.89239 | 40977 ft | 438 kts | 360° |
| 2026-04-21 15:51 | 41.92476 | 11.90054 | 40987 ft | 439 kts | 360° |
| 2026-04-21 15:52 | 41.98517 | 11.90867 | 40989 ft | 439 kts | 360° |
| 2026-04-21 15:52 | 42.04596 | 11.91687 | 40980 ft | 439 kts | 360° |
| 2026-04-21 15:53 | 42.10697 | 11.92511 | 40957 ft | 439 kts | 360° |
| 2026-04-21 15:53 | 42.16791 | 11.93335 | 40940 ft | 440 kts | 360° |
| 2026-04-21 15:54 | 42.22851 | 11.94157 | 40912 ft | 440 kts | 360° |
| 2026-04-21 15:54 | 42.28981 | 11.94990 | 40914 ft | 440 kts | 360° |
| 2026-04-21 15:55 | 42.35044 | 11.95816 | 40913 ft | 441 kts | 360° |
| 2026-04-21 15:55 | 42.41151 | 11.96649 | 40911 ft | 441 kts | 360° |
| 2026-04-21 15:56 | 42.47277 | 11.97486 | 40917 ft | 442 kts | 360° |
| 2026-04-21 15:56 | 42.53387 | 11.98323 | 40916 ft | 442 kts | 360° |
| 2026-04-21 15:57 | 42.59514 | 11.99164 | 40913 ft | 442 kts | 0° |
| 2026-04-21 15:57 | 42.65639 | 12.00006 | 40912 ft | 443 kts | 0° |
| 2026-04-21 15:58 | 42.71777 | 12.00851 | 40910 ft | 443 kts | 0° |
| 2026-04-21 15:58 | 42.77882 | 12.01694 | 40910 ft | 443 kts | 0° |
| 2026-04-21 15:59 | 42.84021 | 12.02543 | 40901 ft | 443 kts | 0° |
| 2026-04-21 15:59 | 42.90158 | 12.03393 | 40908 ft | 443 kts | 0° |
| 2026-04-21 16:00 | 42.96298 | 12.04246 | 40911 ft | 444 kts | 0° |
| 2026-04-21 16:00 | 43.02448 | 12.05102 | 40920 ft | 444 kts | 0° |
| 2026-04-21 16:01 | 43.08597 | 12.05959 | 40917 ft | 444 kts | 0° |
| 2026-04-21 16:01 | 43.13708 | 12.06673 | 40923 ft | 445 kts | 0° |
| 2026-04-21 16:02 | 43.19876 | 12.07536 | 40923 ft | 445 kts | 0° |
| 2026-04-21 16:02 | 43.26043 | 12.08401 | 40927 ft | 445 kts | 0° |
| 2026-04-21 16:03 | 43.32205 | 12.09267 | 40912 ft | 445 kts | 0° |
| 2026-04-21 16:03 | 43.38385 | 12.10137 | 40931 ft | 446 kts | 0° |
| 2026-04-21 16:04 | 43.44567 | 12.11009 | 40933 ft | 446 kts | 0° |
| 2026-04-21 16:04 | 43.50736 | 12.11881 | 40942 ft | 446 kts | 0° |
| 2026-04-21 16:05 | 43.56863 | 12.12749 | 40947 ft | 445 kts | 0° |
| 2026-04-21 16:05 | 43.63048 | 12.13627 | 40950 ft | 446 kts | 0° |
| 2026-04-21 16:06 | 43.69223 | 12.14505 | 40964 ft | 446 kts | 0° |
| 2026-04-21 16:06 | 43.75394 | 12.15385 | 40955 ft | 446 kts | 0° |
| 2026-04-21 16:07 | 43.81529 | 12.16262 | 40958 ft | 446 kts | 0° |
| 2026-04-21 16:07 | 43.87693 | 12.17144 | 40963 ft | 445 kts | 0° |
| 2026-04-21 16:08 | 43.96953 | 12.18473 | 40984 ft | 445 kts | 0° |
| 2026-04-21 16:09 | 44.03115 | 12.19359 | 40990 ft | 445 kts | 0° |
| 2026-04-21 16:09 | 44.09278 | 12.20247 | 40991 ft | 445 kts | 0° |
| 2026-04-21 16:10 | 44.15446 | 12.21139 | 40993 ft | 445 kts | 0° |
| 2026-04-21 16:10 | 44.21601 | 12.22030 | 40996 ft | 444 kts | 0° |
| 2026-04-21 16:11 | 44.27718 | 12.22918 | 40994 ft | 444 kts | 0° |
| 2026-04-21 16:11 | 44.33867 | 12.23812 | 41002 ft | 444 kts | 0° |
| 2026-04-21 16:12 | 44.40013 | 12.24707 | 40988 ft | 444 kts | 0° |
| 2026-04-21 16:12 | 44.46153 | 12.25604 | 40983 ft | 444 kts | 0° |
| 2026-04-21 16:13 | 44.52298 | 12.26503 | 40979 ft | 443 kts | 0° |
| 2026-04-21 16:13 | 44.58436 | 12.27403 | 40985 ft | 443 kts | 0° |
| 2026-04-21 16:14 | 44.64576 | 12.28305 | 40979 ft | 443 kts | 0° |
| 2026-04-21 16:14 | 44.70666 | 12.29202 | 40985 ft | 443 kts | 0° |
| 2026-04-21 16:15 | 44.76804 | 12.30108 | 40981 ft | 443 kts | 0° |
| 2026-04-21 16:15 | 44.82934 | 12.31015 | 40986 ft | 443 kts | 1° |
| 2026-04-21 16:16 | 44.89085 | 12.31926 | 40988 ft | 443 kts | 1° |
| 2026-04-21 16:16 | 44.95228 | 12.32839 | 40989 ft | 444 kts | 1° |
| 2026-04-21 16:17 | 45.01328 | 12.33746 | 40986 ft | 444 kts | 1° |
| 2026-04-21 16:17 | 45.07479 | 12.34663 | 40990 ft | 444 kts | 1° |
| 2026-04-21 16:18 | 45.13628 | 12.35583 | 40988 ft | 444 kts | 1° |
| 2026-04-21 16:18 | 45.19777 | 12.36504 | 40996 ft | 445 kts | 1° |
| 2026-04-21 16:19 | 45.25941 | 12.37430 | 40992 ft | 445 kts | 1° |
| 2026-04-21 16:19 | 45.32098 | 12.38356 | 40993 ft | 445 kts | 1° |
| 2026-04-21 16:20 | 45.38264 | 12.39286 | 40994 ft | 445 kts | 1° |
| 2026-04-21 16:20 | 45.44420 | 12.40216 | 40996 ft | 445 kts | 1° |
| 2026-04-21 16:21 | 45.50592 | 12.41151 | 40995 ft | 445 kts | 1° |
| 2026-04-21 16:21 | 45.56755 | 12.42087 | 40996 ft | 445 kts | 1° |
| 2026-04-21 16:22 | 45.62923 | 12.43024 | 40995 ft | 445 kts | 1° |
| 2026-04-21 16:22 | 45.69050 | 12.43959 | 40996 ft | 445 kts | 1° |
| 2026-04-21 16:23 | 45.75214 | 12.44901 | 40996 ft | 445 kts | 1° |
| 2026-04-21 16:23 | 45.81383 | 12.45845 | 41016 ft | 445 kts | 1° |
| 2026-04-21 16:24 | 45.87553 | 12.46792 | 41023 ft | 445 kts | 1° |
| 2026-04-21 16:24 | 45.93720 | 12.47740 | 41029 ft | 445 kts | 1° |
| 2026-04-21 16:25 | 45.99844 | 12.48684 | 41030 ft | 445 kts | 1° |
| 2026-04-21 16:25 | 46.06007 | 12.49635 | 41034 ft | 445 kts | 1° |
| 2026-04-21 16:26 | 46.12162 | 12.50589 | 41006 ft | 444 kts | 1° |
| 2026-04-21 16:26 | 46.18312 | 12.51542 | 41047 ft | 446 kts | 1° |
| 2026-04-21 16:27 | 46.24483 | 12.52502 | 41016 ft | 444 kts | 1° |
| 2026-04-21 16:27 | 46.30628 | 12.53460 | 41020 ft | 445 kts | 2° |
| 2026-04-21 16:28 | 46.36772 | 12.54419 | 41007 ft | 444 kts | 2° |
| 2026-04-21 16:28 | 46.42945 | 12.55386 | 40982 ft | 445 kts | 2° |
| 2026-04-21 16:29 | 46.49102 | 12.56351 | 40997 ft | 445 kts | 2° |
| 2026-04-21 16:29 | 46.55269 | 12.57321 | 41003 ft | 446 kts | 2° |
| 2026-04-21 16:30 | 46.61439 | 12.58294 | 40998 ft | 447 kts | 2° |
| 2026-04-21 16:30 | 46.67590 | 12.59266 | 40998 ft | 446 kts | 2° |
| 2026-04-21 16:30 | 46.70641 | 12.60185 | 41008 ft | 452 kts | 16° |
| 2026-04-21 16:31 | 46.73527 | 12.62097 | 41010 ft | 459 kts | 21° |
| 2026-04-21 16:31 | 46.79262 | 12.66186 | 41008 ft | 459 kts | 22° |
| 2026-04-21 16:32 | 46.84965 | 12.70383 | 41068 ft | 460 kts | 22° |
| 2026-04-21 16:32 | 46.90667 | 12.74623 | 41048 ft | 459 kts | 23° |
| 2026-04-21 16:33 | 46.96363 | 12.78871 | 41066 ft | 459 kts | 23° |
| 2026-04-21 16:33 | 47.02072 | 12.83137 | 41077 ft | 461 kts | 23° |
| 2026-04-21 16:34 | 47.07775 | 12.87411 | 41071 ft | 459 kts | 23° |